createdAt,value
2022-08-26T00:00:23.789Z,4.10
2022-08-26T00:05:29.782Z,4.28
2022-08-26T00:10:37.331Z,3.97
2022-08-26T00:15:43.219Z,4.28
2022-08-26T00:20:48.427Z,4.45
2022-08-26T00:25:55.775Z,4.28
2022-08-26T00:31:01.610Z,4.40
2022-08-26T00:36:06.808Z,4.10
2022-08-26T00:41:14.061Z,4.60
2022-08-26T00:46:24.022Z,4.50
2022-08-26T00:51:31.040Z,4.63
2022-08-26T00:56:41.350Z,4.47
2022-08-26T01:01:47.564Z,4.57
2022-08-26T01:06:54.611Z,4.72
2022-08-26T01:12:05.329Z,5.05
2022-08-26T01:17:11.058Z,5.20
2022-08-26T01:22:20.333Z,4.95
2022-08-26T01:27:32.404Z,5.28
2022-08-26T01:32:39.052Z,5.18
2022-08-26T01:37:44.469Z,5.15
2022-08-26T01:42:53.237Z,4.75
2022-08-26T01:48:01.312Z,5.10
2022-08-26T01:53:09.500Z,4.53
2022-08-26T01:58:23.924Z,4.80
2022-08-26T02:03:28.851Z,4.78
2022-08-26T02:08:39.679Z,4.72
2022-08-26T02:13:49.946Z,4.57
2022-08-26T02:18:57.918Z,4.85
2022-08-26T02:24:12.092Z,5.10
2022-08-26T02:29:23.630Z,5.70
2022-08-26T02:34:31.342Z,4.88
2022-08-26T02:39:37.888Z,5.47
2022-08-26T02:44:45.048Z,4.90
2022-08-26T02:49:50.018Z,5.47
2022-08-26T02:54:54.985Z,5.45
2022-08-26T03:00:03.594Z,5.50
2022-08-26T03:05:09.433Z,5.45
2022-08-26T03:10:14.495Z,5.10
2022-08-26T03:15:23.339Z,6.38
2022-08-26T03:20:28.059Z,6.63
2022-08-26T03:25:41.009Z,6.07
2022-08-26T03:30:49.327Z,5.50
2022-08-26T03:35:55.768Z,5.22
2022-08-26T03:41:01.306Z,5.95
2022-08-26T03:46:10.538Z,5.85
2022-08-26T03:51:18.395Z,6.57
2022-08-26T03:56:23.641Z,5.93
2022-08-26T04:01:31.560Z,5.53
2022-08-26T04:06:39.731Z,4.93
2022-08-26T04:11:46.444Z,5.65
2022-08-26T04:16:59.510Z,5.30
2022-08-26T04:22:04.198Z,5.88
2022-08-26T04:27:10.490Z,5.85
2022-08-26T04:32:18.300Z,6.40
2022-08-26T04:37:22.916Z,6.80
2022-08-26T04:42:27.560Z,6.70
2022-08-26T04:47:35.002Z,6.95
2022-08-26T04:52:39.544Z,7.38
2022-08-26T04:57:44.252Z,7.30
2022-08-26T05:02:51.587Z,6.68
2022-08-26T05:07:56.338Z,6.50
2022-08-26T05:13:03.580Z,6.78
2022-08-26T05:18:20.836Z,7.05
2022-08-26T05:23:26.759Z,7.65
2022-08-26T05:28:32.429Z,6.90
2022-08-26T05:33:41.364Z,6.88
2022-08-26T05:38:46.453Z,7.10
2022-08-26T05:43:51.028Z,8.05
2022-08-26T05:48:58.549Z,7.88
2022-08-26T05:54:06.967Z,8.32
2022-08-26T05:59:15.989Z,7.10
2022-08-26T06:04:29.336Z,7.35
2022-08-26T06:09:34.376Z,5.97
2022-08-26T06:14:38.864Z,5.40
2022-08-26T06:19:46.564Z,5.80
2022-08-26T06:25:03.674Z,5.28
2022-08-26T06:30:10.768Z,5.90
2022-08-26T06:35:18.338Z,6.53
2022-08-26T06:40:24.631Z,6.35
2022-08-26T06:45:29.642Z,5.82
2022-08-26T06:50:39.528Z,6.20
2022-08-26T06:55:45.854Z,5.85
2022-08-26T07:00:50.499Z,5.43
2022-08-26T07:06:04.267Z,5.50
2022-08-26T07:11:10.294Z,5.40
2022-08-26T07:16:17.830Z,5.72
2022-08-26T07:21:26.122Z,5.65
2022-08-26T07:26:33.150Z,5.25
2022-08-26T07:31:42.859Z,4.60
2022-08-26T07:36:50.473Z,4.60
2022-08-26T07:41:56.050Z,4.80
2022-08-26T07:47:00.575Z,4.45
2022-08-26T07:52:09.340Z,4.20
2022-08-26T07:57:15.758Z,4.37
2022-08-26T08:02:23.830Z,4.07
2022-08-26T08:07:44.286Z,4.20
2022-08-26T08:12:50.462Z,3.75
2022-08-26T08:18:00.609Z,3.58
2022-08-26T08:23:08.159Z,3.80
2022-08-26T08:28:12.785Z,3.97
2022-08-26T08:33:17.498Z,3.67
2022-08-26T08:38:25.999Z,3.47
2022-08-26T08:43:37.690Z,3.60
2022-08-26T08:48:48.773Z,3.70
2022-08-26T08:59:11.182Z,3.63
2022-08-26T09:04:33.282Z,3.65
2022-08-26T09:09:44.547Z,3.33
2022-08-26T09:14:51.857Z,3.67
2022-08-26T09:20:03.848Z,3.53
2022-08-26T09:25:14.104Z,3.50
2022-08-26T09:30:26.557Z,3.50
2022-08-26T09:35:34.154Z,3.28
2022-08-26T09:40:41.560Z,3.90
2022-08-26T09:45:58.418Z,3.42
2022-08-26T09:51:05.991Z,3.58
2022-08-26T09:56:19.910Z,4.05
2022-08-26T10:01:32.320Z,3.40
2022-08-26T10:06:41.338Z,3.40
2022-08-26T10:11:50.765Z,3.15
2022-08-26T10:17:01.616Z,3.20
2022-08-26T10:22:14.953Z,3.40
2022-08-26T10:27:28.584Z,3.30
2022-08-26T10:32:40.839Z,2.67
2022-08-26T10:37:51.726Z,2.90
2022-08-26T10:43:09.941Z,3.05
2022-08-26T10:48:22.338Z,2.73
2022-08-26T10:53:42.550Z,3.30
2022-08-26T10:59:04.577Z,3.20
2022-08-26T11:04:25.591Z,2.90
2022-08-26T11:09:54.537Z,3.08
2022-08-26T11:15:02.051Z,3.33
2022-08-26T11:20:13.743Z,3.20
2022-08-26T11:25:27.748Z,2.90
2022-08-26T11:30:56.987Z,3.08
2022-08-26T11:36:12.026Z,2.63
2022-08-26T11:41:29.379Z,2.85
2022-08-26T11:47:11.357Z,2.67
2022-08-26T11:52:38.376Z,2.60
2022-08-26T11:58:01.056Z,2.60
2022-08-26T12:03:38.934Z,3.03
2022-08-26T12:08:48.219Z,2.47
2022-08-26T12:14:02.664Z,2.85
2022-08-26T12:19:27.486Z,2.40
2022-08-26T12:24:35.191Z,2.40
2022-08-26T12:29:40.058Z,2.85
2022-08-26T12:34:46.351Z,2.88
2022-08-26T12:39:54.284Z,2.60
2022-08-26T12:45:04.385Z,2.30
2022-08-26T12:50:12.384Z,2.67
2022-08-26T12:55:26.020Z,2.63
2022-08-26T13:00:38.027Z,2.40
2022-08-26T13:05:42.970Z,2.10
2022-08-26T13:10:50.511Z,2.28
2022-08-26T13:15:55.712Z,2.17
2022-08-26T13:21:00.574Z,2.20
2022-08-26T13:26:08.002Z,2.50
2022-08-26T13:31:17.864Z,2.20
2022-08-26T13:36:23.360Z,1.60
2022-08-26T13:41:31.970Z,1.85
2022-08-26T13:46:37.180Z,1.92
2022-08-26T13:51:42.683Z,1.98
2022-08-26T13:56:50.125Z,2.00
2022-08-26T14:02:02.923Z,2.40
2022-08-26T14:07:10.990Z,1.98
2022-08-26T14:12:18.386Z,2.38
2022-08-26T14:17:26.289Z,2.40
2022-08-26T14:22:37.922Z,2.33
2022-08-26T14:27:48.010Z,2.90
2022-08-26T14:32:56.652Z,5.03
2022-08-26T14:38:01.261Z,1.90
2022-08-26T14:43:09.668Z,3.50
2022-08-26T14:48:14.995Z,3.40
2022-08-26T14:53:32.221Z,4.50
2022-08-26T14:58:39.558Z,4.13
2022-08-26T15:03:44.903Z,3.03
2022-08-26T15:08:49.830Z,4.30
2022-08-26T15:13:57.482Z,4.20
2022-08-26T15:19:04.312Z,4.00
2022-08-26T15:24:09.133Z,4.43
2022-08-26T15:29:17.030Z,6.00
2022-08-26T15:34:22.905Z,5.05
2022-08-26T15:39:27.818Z,6.30
2022-08-26T15:44:36.999Z,6.13
2022-08-26T15:49:46.310Z,4.88
2022-08-26T17:14:43.857Z,3.22
2022-08-26T17:19:50.505Z,3.00
2022-08-26T17:24:55.164Z,2.90
2022-08-26T17:30:02.381Z,2.90
2022-08-26T17:35:09.395Z,3.08
2022-08-26T17:40:29.299Z,3.40
2022-08-26T17:45:36.655Z,3.00
2022-08-26T17:50:41.797Z,2.40
2022-08-26T17:55:46.514Z,2.78
2022-08-26T18:00:55.821Z,2.80
2022-08-26T18:06:00.524Z,2.97
2022-08-26T18:11:10.159Z,3.00
2022-08-26T18:16:19.453Z,3.50
2022-08-26T18:21:26.456Z,3.45
2022-08-26T18:26:39.076Z,3.90
2022-08-26T18:31:49.638Z,3.70
2022-08-26T18:36:57.716Z,3.43
2022-08-26T18:42:10.397Z,3.97
2022-08-26T18:47:26.914Z,3.53
2022-08-26T18:52:31.441Z,3.58
2022-08-26T18:57:45.140Z,3.20
2022-08-26T19:02:56.004Z,3.40
2022-08-26T19:08:03.258Z,3.75
2022-08-26T19:13:09.389Z,3.65
2022-08-26T19:18:20.073Z,3.08
2022-08-26T19:23:32.685Z,3.00
2022-08-26T19:28:39.723Z,3.08
2022-08-26T19:33:47.225Z,2.70
2022-08-26T19:38:55.922Z,2.90
2022-08-26T19:44:01.854Z,3.20
2022-08-26T19:49:11.241Z,2.80
2022-08-26T19:54:16.044Z,3.10
2022-08-26T19:59:20.823Z,2.70
2022-08-26T20:04:27.988Z,2.90
2022-08-26T20:09:34.141Z,2.85
2022-08-26T20:14:39.365Z,3.20
2022-08-26T20:19:59.013Z,2.70
2022-08-26T20:25:03.794Z,3.40
2022-08-26T20:30:11.094Z,3.20
2022-08-26T20:35:18.811Z,3.38
2022-08-26T20:40:24.210Z,3.25
2022-08-26T20:45:28.885Z,3.55
2022-08-26T20:50:36.195Z,3.55
2022-08-26T20:55:40.922Z,4.07
2022-08-26T21:00:45.603Z,4.53
2022-08-26T21:05:53.197Z,6.22
2022-08-26T21:10:57.793Z,6.63
2022-08-26T21:16:02.879Z,5.95
2022-08-26T21:21:11.368Z,5.40
2022-08-26T21:26:19.041Z,5.60
2022-08-26T21:31:25.242Z,5.10
2022-08-26T21:36:32.557Z,5.03
2022-08-26T21:41:37.108Z,5.35
2022-08-26T21:46:41.827Z,5.68
2022-08-26T21:51:50.527Z,5.60
2022-08-26T21:56:55.152Z,5.10
2022-08-26T22:02:00.382Z,5.60
2022-08-26T22:07:07.893Z,5.82
2022-08-26T22:12:13.760Z,6.35
2022-08-26T22:17:18.379Z,5.88
2022-08-26T22:22:33.506Z,6.28
2022-08-26T22:27:40.560Z,6.40
2022-08-26T22:32:47.658Z,5.78
2022-08-26T22:37:54.961Z,6.32
2022-08-26T22:43:02.387Z,6.55
2022-08-26T22:48:08.524Z,7.50
2022-08-26T22:53:16.443Z,7.00
2022-08-26T22:58:21.846Z,7.13
2022-08-26T23:03:36.662Z,8.50
2022-08-26T23:08:46.455Z,10.15
2022-08-26T23:13:51.029Z,10.05
2022-08-26T23:18:55.852Z,13.52
2022-08-26T23:24:03.651Z,13.93
2022-08-26T23:29:10.482Z,14.43
2022-08-26T23:34:29.393Z,15.40
2022-08-26T23:39:38.155Z,14.55
2022-08-26T23:44:42.789Z,12.88
2022-08-26T23:49:47.429Z,15.10
2022-08-26T23:54:54.830Z,18.48
2022-08-26T23:59:59.644Z,22.23
